Weather at Falcon Field

Public forecast

Using degrees Fahrenheit for public forecast. Weather courtesy of forecast.io.

Current aviation weather report (METAR) for Falcon Field

Retrieved 2021/09/21 12:54 UTC (30 minutes ago):

KFFZ 211254Z 03008KT 10SM CLR 24/06 A3006 RMK AO2 SLP157 T02390056

Closest aviation forecast (TAF) to Falcon Field

Closest forecast is Phoenix-Mesa-Gateway Airport, 9.9 nm (18.3 km) SSE. Retrieved 2021/09/21 12:22 UTC (1 hour ago):

TAF KIWA 211120Z 2112/2212 11005KT P6SM SKC FM212000 28005KT P6SM SKC FM220500 11005KT P6SM SKC